createdAt,value
2019-06-26T00:01:19.035Z,62.40
2019-06-26T00:03:23.878Z,62.57
2019-06-26T00:05:28.835Z,62.71
2019-06-26T00:07:32.724Z,62.90
2019-06-26T00:09:36.627Z,63.11
2019-06-26T00:11:40.512Z,63.24
2019-06-26T00:13:44.442Z,63.37
2019-06-26T00:15:48.502Z,63.58
2019-06-26T00:17:52.301Z,63.91
2019-06-26T00:19:56.215Z,64.15
2019-06-26T00:22:00.043Z,64.42
2019-06-26T00:24:04.024Z,64.66
2019-06-26T00:26:07.770Z,64.84
2019-06-26T00:28:11.757Z,65.00
2019-06-26T00:30:17.329Z,65.13
2019-06-26T00:32:23.287Z,65.21
2019-06-26T00:34:27.180Z,65.27
2019-06-26T00:36:31.060Z,65.38
2019-06-26T00:38:35.016Z,65.26
2019-06-26T00:40:38.946Z,65.12
2019-06-26T00:42:42.796Z,64.87
2019-06-26T00:44:46.692Z,64.69
2019-06-26T00:46:50.567Z,64.71
2019-06-26T00:48:56.407Z,64.75
2019-06-26T00:51:00.253Z,64.79
2019-06-26T00:53:04.216Z,64.92
2019-06-26T00:55:08.506Z,65.12
2019-06-26T00:57:13.477Z,65.29
2019-06-26T00:59:17.306Z,65.30
2019-06-26T01:01:21.192Z,65.43
2019-06-26T01:03:25.110Z,65.47
2019-06-26T01:05:29.073Z,65.41
2019-06-26T01:07:33.215Z,65.44
2019-06-26T01:09:37.012Z,65.45
2019-06-26T01:11:41.142Z,65.45
2019-06-26T01:13:57.313Z,65.40
2019-06-26T01:15:52.655Z,65.24
2019-06-26T01:17:57.546Z,65.09
2019-06-26T01:20:01.483Z,65.06
2019-06-26T01:22:05.406Z,65.34
2019-06-26T01:24:09.346Z,65.41
2019-06-26T01:26:13.077Z,65.41
2019-06-26T01:28:17.989Z,65.63
2019-06-26T01:30:23.037Z,65.74
2019-06-26T01:32:26.949Z,65.81
2019-06-26T01:34:31.054Z,65.98
2019-06-26T01:36:34.955Z,65.98
2019-06-26T01:38:38.926Z,66.40
2019-06-26T01:40:43.081Z,66.60
2019-06-26T01:42:46.857Z,66.77
2019-06-26T01:44:50.783Z,66.71
2019-06-26T01:46:54.669Z,66.70
2019-06-26T01:48:58.550Z,66.81
2019-06-26T01:51:02.464Z,66.96
2019-06-26T01:53:06.376Z,67.08
2019-06-26T01:55:11.320Z,67.17
2019-06-26T01:57:15.211Z,67.27
2019-06-26T01:59:19.120Z,67.36
2019-06-26T02:01:23.165Z,67.51
2019-06-26T02:03:26.934Z,67.72
2019-06-26T02:05:30.835Z,67.96
2019-06-26T02:07:34.719Z,68.13
2019-06-26T02:09:38.633Z,68.39
2019-06-26T02:11:42.548Z,68.65
2019-06-26T02:13:46.433Z,68.85
2019-06-26T02:15:50.365Z,69.03
2019-06-26T02:17:54.245Z,69.09
2019-06-26T02:19:58.163Z,69.11
2019-06-26T02:22:02.085Z,69.20
2019-06-26T02:24:06.044Z,69.27
2019-06-26T02:26:09.960Z,68.96
2019-06-26T02:28:13.795Z,68.75
2019-06-26T02:30:19.152Z,68.72
2019-06-26T02:32:23.049Z,68.79
2019-06-26T02:34:26.916Z,68.70
2019-06-26T02:36:30.845Z,68.62
2019-06-26T02:38:34.995Z,68.64
2019-06-26T02:40:38.888Z,68.79
2019-06-26T02:42:42.796Z,68.98
2019-06-26T02:44:53.338Z,68.95
2019-06-26T02:46:52.298Z,69.04
2019-06-26T02:48:57.233Z,69.01
2019-06-26T02:51:01.235Z,68.97
2019-06-26T02:53:05.229Z,68.94
2019-06-26T02:55:09.295Z,69.04
2019-06-26T02:57:13.231Z,69.16
2019-06-26T02:59:17.074Z,69.34
2019-06-26T03:01:21.074Z,69.54
2019-06-26T03:03:24.919Z,69.73
2019-06-26T03:05:28.816Z,69.94
2019-06-26T03:07:32.693Z,70.08
2019-06-26T03:09:36.612Z,70.19
2019-06-26T03:11:40.575Z,70.27
2019-06-26T03:13:44.399Z,70.27
2019-06-26T03:15:50.506Z,70.28
2019-06-26T03:17:55.658Z,70.16
2019-06-26T03:19:59.197Z,70.01
2019-06-26T03:22:03.318Z,69.91
2019-06-26T03:24:07.219Z,69.99
2019-06-26T03:26:11.308Z,70.11
2019-06-26T03:28:15.073Z,70.17
2019-06-26T03:30:20.197Z,70.22
2019-06-26T03:32:25.118Z,70.10
2019-06-26T03:34:29.096Z,70.01
2019-06-26T03:36:32.892Z,69.93
2019-06-26T03:38:36.926Z,69.88
2019-06-26T03:40:40.832Z,69.95
2019-06-26T03:42:44.609Z,69.93
2019-06-26T03:44:48.590Z,69.77
2019-06-26T03:46:54.295Z,69.60
2019-06-26T03:48:58.134Z,69.41
2019-06-26T03:51:02.057Z,69.28
2019-06-26T03:53:06.107Z,69.27
2019-06-26T03:55:10.005Z,69.10
2019-06-26T03:57:13.756Z,69.08
2019-06-26T03:59:17.685Z,69.44
2019-06-26T04:01:22.599Z,69.46
2019-06-26T04:03:27.545Z,69.34
2019-06-26T04:05:31.420Z,69.16
2019-06-26T04:07:35.399Z,69.09
2019-06-26T04:09:39.257Z,69.09
2019-06-26T04:11:43.421Z,68.87
2019-06-26T04:13:47.258Z,68.67
2019-06-26T04:15:51.470Z,68.53
2019-06-26T04:17:57.386Z,68.51
2019-06-26T04:20:01.323Z,68.32
2019-06-26T04:22:05.328Z,68.16
2019-06-26T04:24:09.304Z,67.95
2019-06-26T04:26:13.141Z,67.72
2019-06-26T04:28:17.029Z,67.46
2019-06-26T04:30:21.629Z,67.20
2019-06-26T04:32:25.463Z,66.94
2019-06-26T04:34:29.370Z,66.66
2019-06-26T04:36:33.275Z,66.36
2019-06-26T04:38:37.253Z,65.98
2019-06-26T04:40:41.130Z,65.68
2019-06-26T04:42:44.979Z,65.42
2019-06-26T04:44:48.891Z,65.08
2019-06-26T04:46:52.798Z,64.78
2019-06-26T04:48:56.700Z,64.36
2019-06-26T04:51:00.625Z,63.91
2019-06-26T04:53:04.695Z,63.61
2019-06-26T04:55:09.514Z,63.25
2019-06-26T04:57:13.332Z,62.90
2019-06-26T04:59:17.232Z,62.56
2019-06-26T05:01:20.981Z,62.09
2019-06-26T05:03:24.835Z,61.80
2019-06-26T05:05:38.887Z,61.52
2019-06-26T05:07:34.297Z,61.15
2019-06-26T05:09:38.018Z,60.80
2019-06-26T05:11:41.762Z,60.41
2019-06-26T05:13:45.473Z,60.00
2019-06-26T05:15:49.226Z,59.68
2019-06-26T05:17:53.012Z,59.38
2019-06-26T05:19:56.730Z,59.01
2019-06-26T05:22:00.533Z,58.52
2019-06-26T05:24:04.262Z,58.12
2019-06-26T05:26:08.061Z,57.58
2019-06-26T05:28:11.793Z,57.01
2019-06-26T05:30:16.905Z,56.57
2019-06-26T05:32:20.591Z,56.12
2019-06-26T05:34:24.463Z,55.62
2019-06-26T05:36:28.201Z,55.17
2019-06-26T05:38:31.934Z,54.69
2019-06-26T05:40:35.662Z,54.13
2019-06-26T05:42:39.376Z,53.62
2019-06-26T05:44:43.173Z,53.08
2019-06-26T05:46:46.968Z,52.58
2019-06-26T05:48:50.745Z,51.88
2019-06-26T05:50:54.922Z,51.15
2019-06-26T05:52:58.644Z,50.39
2019-06-26T05:55:02.604Z,49.83
2019-06-26T05:57:06.392Z,49.21
2019-06-26T05:59:10.110Z,48.60
2019-06-26T06:01:13.877Z,47.67
2019-06-26T06:03:18.014Z,46.78
2019-06-26T06:05:22.090Z,45.93
2019-06-26T06:07:25.835Z,45.15
2019-06-26T06:09:29.632Z,44.36
2019-06-26T06:11:33.355Z,43.41
2019-06-26T06:13:37.077Z,42.53
2019-06-26T06:15:40.810Z,41.43
2019-06-26T06:17:44.723Z,39.90
2019-06-26T06:19:48.445Z,37.85
2019-06-26T06:21:52.230Z,36.05
2019-06-26T06:23:55.987Z,34.26
2019-06-26T06:25:59.808Z,32.80
2019-06-26T06:28:03.617Z,31.50
2019-06-26T06:30:07.931Z,30.33
2019-06-26T06:32:11.689Z,28.74
2019-06-26T06:34:15.391Z,27.89
2019-06-26T06:36:19.115Z,27.16
2019-06-26T06:38:22.847Z,25.91
2019-06-26T06:40:26.640Z,25.07
2019-06-26T06:42:30.412Z,24.16
2019-06-26T06:44:34.346Z,23.17
2019-06-26T06:46:38.062Z,22.37
2019-06-26T06:48:41.779Z,21.45
2019-06-26T06:50:45.632Z,20.64
2019-06-26T06:52:49.373Z,19.86
2019-06-26T06:54:53.091Z,19.05
2019-06-26T06:56:56.941Z,18.40
2019-06-26T06:59:00.846Z,17.73
2019-06-26T07:01:04.833Z,17.21
2019-06-26T07:03:08.663Z,16.82
2019-06-26T07:05:12.644Z,16.68
2019-06-26T07:07:16.359Z,16.52
2019-06-26T07:09:20.223Z,16.16
2019-06-26T07:11:24.049Z,15.84
2019-06-26T07:13:27.768Z,15.68
2019-06-26T07:15:31.758Z,15.51
2019-06-26T07:17:35.634Z,15.50
2019-06-26T07:19:39.463Z,15.17
2019-06-26T07:21:43.374Z,14.95
2019-06-26T07:23:47.295Z,14.79
2019-06-26T07:25:51.013Z,14.37
2019-06-26T07:27:54.880Z,14.07
2019-06-26T07:29:58.667Z,13.61
2019-06-26T07:32:02.392Z,13.33
2019-06-26T07:34:06.176Z,13.00
2019-06-26T07:36:10.040Z,12.69
2019-06-26T07:38:13.850Z,12.35
2019-06-26T07:40:18.062Z,12.24
2019-06-26T07:42:21.832Z,11.89
2019-06-26T07:44:25.570Z,11.63
2019-06-26T07:46:29.289Z,11.36
2019-06-26T07:48:33.020Z,10.97
2019-06-26T07:50:36.787Z,10.91
2019-06-26T07:52:40.552Z,10.75
2019-06-26T07:54:44.284Z,10.21
2019-06-26T07:56:48.081Z,9.91
2019-06-26T07:58:51.832Z,9.55
2019-06-26T08:00:55.604Z,9.39
2019-06-26T08:02:59.546Z,9.27
2019-06-26T08:05:03.343Z,9.17
2019-06-26T08:07:07.358Z,9.05
2019-06-26T08:09:11.155Z,8.96
2019-06-26T08:11:15.222Z,8.75
2019-06-26T08:13:19.176Z,8.69
2019-06-26T08:15:23.240Z,8.88
2019-06-26T08:17:27.125Z,8.89
2019-06-26T08:19:30.857Z,9.04
2019-06-26T08:21:34.632Z,9.06
2019-06-26T08:23:38.458Z,8.85
2019-06-26T08:25:42.348Z,8.74
2019-06-26T08:27:46.267Z,8.69
2019-06-26T08:29:50.068Z,8.77
2019-06-26T08:31:53.887Z,8.43
2019-06-26T08:33:57.782Z,8.31
2019-06-26T08:36:01.488Z,8.14
2019-06-26T08:38:11.273Z,8.00
2019-06-26T08:40:11.977Z,7.79
2019-06-26T08:42:15.707Z,7.53
2019-06-26T08:44:19.560Z,7.53
2019-06-26T08:46:23.339Z,7.66
2019-06-26T08:48:38.814Z,7.90
2019-06-26T08:50:32.766Z,8.18
2019-06-26T08:52:36.601Z,8.19
2019-06-26T08:54:40.315Z,8.00
2019-06-26T08:56:44.266Z,7.66
2019-06-26T08:58:47.999Z,7.56
2019-06-26T09:00:51.715Z,7.51
2019-06-26T09:02:55.496Z,7.52
2019-06-26T09:04:59.257Z,7.57
2019-06-26T09:07:03.128Z,7.44
2019-06-26T09:09:07.659Z,7.24
2019-06-26T09:11:11.529Z,7.09
2019-06-26T09:13:15.245Z,7.12
2019-06-26T09:15:19.513Z,7.18
2019-06-26T09:17:23.240Z,7.21
2019-06-26T09:19:26.966Z,7.27
2019-06-26T09:21:31.390Z,7.36
2019-06-26T09:23:35.369Z,7.27
2019-06-26T09:25:39.103Z,7.06
2019-06-26T09:27:42.973Z,6.93
2019-06-26T09:29:46.714Z,6.86
2019-06-26T09:31:50.499Z,6.76
2019-06-26T09:33:54.289Z,6.59
2019-06-26T09:35:58.261Z,6.24
2019-06-26T09:38:02.161Z,6.41
2019-06-26T09:40:06.648Z,6.37
2019-06-26T09:42:10.438Z,6.43
2019-06-26T09:44:14.296Z,6.35
2019-06-26T09:46:18.109Z,6.45
2019-06-26T09:48:21.838Z,6.55
2019-06-26T09:50:25.629Z,6.60
2019-06-26T09:52:29.495Z,6.56
2019-06-26T09:54:33.228Z,6.39
2019-06-26T09:56:37.088Z,6.09
2019-06-26T09:58:40.918Z,6.10
2019-06-26T10:00:44.660Z,6.16
2019-06-26T10:02:48.365Z,6.26
2019-06-26T10:04:52.237Z,6.32
2019-06-26T10:06:55.950Z,6.22
2019-06-26T10:08:59.847Z,5.98
2019-06-26T10:11:03.714Z,5.88
2019-06-26T10:13:07.456Z,5.88
2019-06-26T10:15:11.967Z,5.71
2019-06-26T10:17:15.821Z,5.49
2019-06-26T10:19:19.623Z,5.52
2019-06-26T10:21:23.801Z,5.36
2019-06-26T10:23:27.795Z,5.50
2019-06-26T10:25:31.532Z,5.65
2019-06-26T10:27:35.280Z,5.71
2019-06-26T10:29:39.194Z,5.61
2019-06-26T10:31:42.985Z,5.50
2019-06-26T10:33:46.895Z,5.42
2019-06-26T10:35:50.733Z,5.21
2019-06-26T10:37:54.518Z,5.30
2019-06-26T10:39:58.247Z,5.53
2019-06-26T10:42:02.174Z,5.70
2019-06-26T10:44:06.184Z,5.74
2019-06-26T10:46:09.912Z,5.95
2019-06-26T10:48:13.705Z,5.83
2019-06-26T10:50:17.928Z,5.58
2019-06-26T10:52:21.648Z,5.48
2019-06-26T10:54:25.520Z,5.25
2019-06-26T10:56:29.454Z,5.36
2019-06-26T10:58:33.174Z,5.50
2019-06-26T11:00:37.359Z,5.30
2019-06-26T11:02:41.403Z,5.19
2019-06-26T11:04:45.245Z,5.25
2019-06-26T11:06:49.181Z,5.28
2019-06-26T11:08:53.259Z,5.47
2019-06-26T11:10:57.208Z,5.56
2019-06-26T11:13:01.151Z,5.22
2019-06-26T11:15:05.712Z,5.12
2019-06-26T11:17:09.409Z,4.91
2019-06-26T11:19:13.226Z,4.67
2019-06-26T11:21:17.198Z,4.58
2019-06-26T11:23:20.992Z,4.49
2019-06-26T11:25:24.916Z,4.62
2019-06-26T11:27:28.814Z,4.86
2019-06-26T11:29:32.546Z,4.89
2019-06-26T11:31:36.291Z,4.98
2019-06-26T11:33:40.024Z,4.90
2019-06-26T11:35:43.838Z,4.73
2019-06-26T11:37:47.727Z,4.90
2019-06-26T11:39:51.867Z,4.97
2019-06-26T11:41:55.761Z,4.89
2019-06-26T11:43:59.489Z,4.81
2019-06-26T11:46:03.429Z,4.72
2019-06-26T11:48:07.380Z,4.71
2019-06-26T11:50:13.023Z,4.65
2019-06-26T11:52:16.981Z,4.94
2019-06-26T11:54:20.902Z,5.37
2019-06-26T11:56:24.685Z,5.63
2019-06-26T11:58:28.723Z,6.37
2019-06-26T12:00:32.446Z,6.89
2019-06-26T12:02:36.432Z,7.04
2019-06-26T12:04:40.687Z,7.57
2019-06-26T12:06:46.279Z,8.08
2019-06-26T12:08:50.187Z,8.24
2019-06-26T12:10:53.899Z,8.22
2019-06-26T12:12:57.623Z,7.93
2019-06-26T12:15:01.519Z,7.71
2019-06-26T12:17:05.232Z,7.40
2019-06-26T12:19:08.958Z,7.18
2019-06-26T12:21:12.834Z,7.22
2019-06-26T12:23:16.706Z,7.39
2019-06-26T12:25:20.579Z,7.58
2019-06-26T12:27:24.577Z,7.90
2019-06-26T12:29:28.404Z,7.87
2019-06-26T12:31:32.388Z,8.00
2019-06-26T12:33:36.110Z,8.27
2019-06-26T12:35:40.972Z,8.52
2019-06-26T12:37:44.864Z,8.74
2019-06-26T12:39:48.596Z,8.84
2019-06-26T12:41:52.435Z,8.82
2019-06-26T12:43:56.347Z,8.92
2019-06-26T12:46:00.263Z,8.98
2019-06-26T12:48:04.057Z,8.93
2019-06-26T12:50:08.730Z,8.94
2019-06-26T12:52:12.433Z,8.81
2019-06-26T12:54:16.206Z,8.65
2019-06-26T12:56:19.999Z,8.36
2019-06-26T12:58:23.816Z,8.18
2019-06-26T13:00:27.686Z,8.19
2019-06-26T13:02:31.583Z,8.44
2019-06-26T13:04:35.371Z,8.65
2019-06-26T13:06:39.286Z,9.04
2019-06-26T13:08:43.147Z,9.36
2019-06-26T13:10:50.045Z,9.69
2019-06-26T13:12:52.434Z,9.52
2019-06-26T13:14:56.362Z,9.39
2019-06-26T13:17:00.069Z,9.25
2019-06-26T13:19:03.840Z,9.07
2019-06-26T13:21:07.727Z,9.12
2019-06-26T13:23:14.629Z,9.43
2019-06-26T13:25:17.082Z,9.82
2019-06-26T13:27:20.797Z,10.08
2019-06-26T13:29:24.508Z,10.60
2019-06-26T13:31:28.288Z,11.14
2019-06-26T13:33:32.077Z,11.40
2019-06-26T13:35:35.784Z,11.67
2019-06-26T13:37:39.513Z,11.96
2019-06-26T13:39:43.211Z,12.23
2019-06-26T13:41:46.946Z,12.44
2019-06-26T13:43:50.793Z,12.60
2019-06-26T13:45:54.494Z,12.60
2019-06-26T13:47:58.210Z,12.80
2019-06-26T13:50:02.756Z,13.24
2019-06-26T13:52:06.621Z,13.79
2019-06-26T13:54:10.801Z,14.13
2019-06-26T13:56:14.523Z,14.72
2019-06-26T13:58:18.384Z,15.15
2019-06-26T14:00:23.651Z,15.64
2019-06-26T14:02:27.504Z,16.13
2019-06-26T14:04:31.193Z,16.71
2019-06-26T14:06:35.011Z,16.83
2019-06-26T14:08:38.716Z,16.89
2019-06-26T14:10:42.574Z,17.09
2019-06-26T14:12:46.369Z,17.05
2019-06-26T14:14:57.366Z,17.38
2019-06-26T14:16:55.615Z,17.55
2019-06-26T14:18:59.424Z,17.77
2019-06-26T14:21:03.327Z,17.97
2019-06-26T14:23:07.118Z,18.08
2019-06-26T14:25:11.068Z,18.16
2019-06-26T14:27:14.831Z,17.96
2019-06-26T14:29:21.196Z,17.93
2019-06-26T14:31:24.351Z,17.89
2019-06-26T14:33:28.078Z,17.99
2019-06-26T14:35:31.778Z,17.93
2019-06-26T14:37:35.621Z,18.06
2019-06-26T14:39:41.101Z,18.45
2019-06-26T14:41:45.026Z,18.50
2019-06-26T14:43:48.760Z,18.57
2019-06-26T14:45:52.455Z,18.64
2019-06-26T14:47:56.162Z,18.90
2019-06-26T14:49:59.861Z,19.19
2019-06-26T14:52:03.812Z,19.31
2019-06-26T14:54:07.730Z,19.38
2019-06-26T14:56:11.575Z,19.48
2019-06-26T14:58:15.462Z,19.61
2019-06-26T15:00:19.246Z,19.72
2019-06-26T15:02:23.070Z,19.96
2019-06-26T15:04:26.843Z,20.20
2019-06-26T15:06:30.538Z,20.16
2019-06-26T15:08:34.285Z,19.84
2019-06-26T15:10:38.055Z,19.77
2019-06-26T15:12:41.838Z,19.79
2019-06-26T15:14:45.583Z,20.25
2019-06-26T15:16:49.443Z,20.47
2019-06-26T15:18:53.165Z,20.42
2019-06-26T15:20:56.972Z,20.50
2019-06-26T15:23:00.690Z,20.92
2019-06-26T15:25:04.787Z,21.35
2019-06-26T15:27:08.590Z,21.66
2019-06-26T15:29:12.390Z,21.85
2019-06-26T15:31:16.221Z,21.95
2019-06-26T15:33:19.919Z,22.11
2019-06-26T15:35:23.823Z,22.07
2019-06-26T15:37:27.546Z,22.05
2019-06-26T15:39:31.308Z,21.95
2019-06-26T15:41:35.189Z,21.86
2019-06-26T15:43:39.170Z,22.12
2019-06-26T15:45:43.160Z,22.08
2019-06-26T15:47:46.920Z,22.21
2019-06-26T15:49:50.652Z,22.12
2019-06-26T15:51:55.120Z,22.17
2019-06-26T15:54:00.039Z,22.05
2019-06-26T15:56:04.002Z,22.06
2019-06-26T15:58:07.711Z,22.21
2019-06-26T16:00:12.422Z,22.20
2019-06-26T16:02:16.132Z,22.05
2019-06-26T16:04:19.927Z,21.96
2019-06-26T16:06:23.639Z,22.03
2019-06-26T16:08:27.459Z,21.98
2019-06-26T16:10:34.285Z,22.11
2019-06-26T16:12:36.722Z,22.35
2019-06-26T16:14:40.542Z,22.44
2019-06-26T16:16:45.901Z,22.63
2019-06-26T16:18:54.941Z,22.72
2019-06-26T16:20:58.809Z,22.74
2019-06-26T16:23:02.557Z,23.01
2019-06-26T16:25:07.164Z,23.55
2019-06-26T16:27:10.876Z,24.01
2019-06-26T16:29:14.591Z,24.16
2019-06-26T16:31:18.308Z,24.17
2019-06-26T16:33:22.071Z,24.21
2019-06-26T16:35:25.775Z,24.30
2019-06-26T16:37:29.492Z,24.37
2019-06-26T16:39:33.231Z,24.19
2019-06-26T16:41:37.130Z,24.24
2019-06-26T16:43:40.931Z,24.38
2019-06-26T16:45:44.642Z,24.48
2019-06-26T16:47:48.350Z,24.66
2019-06-26T16:49:52.069Z,24.85
2019-06-26T16:51:55.780Z,25.09
2019-06-26T16:53:59.497Z,25.13
2019-06-26T16:56:03.346Z,25.09
2019-06-26T16:58:07.094Z,25.11
2019-06-26T17:00:11.191Z,25.25
2019-06-26T17:02:15.113Z,25.37
2019-06-26T17:04:18.966Z,25.31
2019-06-26T17:06:22.683Z,25.20
2019-06-26T17:08:26.559Z,25.35
2019-06-26T17:10:30.457Z,25.41
2019-06-26T17:12:34.379Z,25.56
2019-06-26T17:14:38.267Z,25.65
2019-06-26T17:16:42.095Z,25.45
2019-06-26T17:18:46.150Z,25.39
2019-06-26T17:20:49.975Z,25.32
2019-06-26T17:23:05.058Z,25.21
2019-06-26T17:24:59.542Z,25.11
2019-06-26T17:27:03.332Z,25.14
2019-06-26T17:29:07.130Z,25.06
2019-06-26T17:31:10.840Z,25.01
2019-06-26T17:33:14.634Z,25.00
2019-06-26T17:35:18.458Z,24.94
2019-06-26T17:37:22.169Z,24.94
2019-06-26T17:39:25.886Z,25.01
2019-06-26T17:41:29.652Z,25.05
2019-06-26T17:43:33.365Z,24.98
2019-06-26T17:45:37.097Z,25.07
2019-06-26T17:47:41.011Z,25.11
2019-06-26T17:49:44.860Z,25.25
2019-06-26T17:51:48.586Z,25.37
2019-06-26T17:53:52.472Z,25.28
2019-06-26T17:55:56.437Z,25.34
2019-06-26T17:58:00.338Z,25.48
2019-06-26T18:00:04.935Z,25.63
2019-06-26T18:02:08.685Z,25.73
2019-06-26T18:04:12.448Z,25.87
2019-06-26T18:06:16.165Z,25.99
2019-06-26T18:08:19.868Z,26.09
2019-06-26T18:10:23.780Z,26.21
2019-06-26T18:12:27.491Z,26.41
2019-06-26T18:14:31.353Z,26.55
2019-06-26T18:16:35.298Z,26.65
2019-06-26T18:18:39.010Z,26.79
2019-06-26T18:20:42.816Z,26.86
2019-06-26T18:22:46.598Z,26.82
2019-06-26T18:24:50.396Z,26.77
2019-06-26T18:26:54.097Z,26.83
2019-06-26T18:28:57.817Z,26.99
2019-06-26T18:31:01.739Z,27.11
2019-06-26T18:33:05.605Z,27.27
2019-06-26T18:35:10.083Z,27.40
2019-06-26T18:37:13.817Z,27.62
2019-06-26T18:39:17.537Z,27.79
2019-06-26T18:41:21.461Z,28.02
2019-06-26T18:43:27.608Z,28.22
2019-06-26T18:45:31.421Z,28.43
2019-06-26T18:47:35.211Z,28.67
2019-06-26T18:49:39.245Z,28.98
2019-06-26T18:51:43.090Z,29.39
2019-06-26T18:53:53.464Z,29.92
2019-06-26T18:55:52.560Z,30.33
2019-06-26T18:57:56.491Z,30.68
2019-06-26T19:00:00.275Z,30.96
2019-06-26T19:02:04.477Z,31.26
2019-06-26T19:04:08.295Z,31.50
2019-06-26T19:06:12.280Z,31.85
2019-06-26T19:08:16.218Z,32.06
2019-06-26T19:10:20.686Z,32.32
2019-06-26T19:12:24.656Z,32.56
2019-06-26T19:14:28.478Z,32.81
2019-06-26T19:16:35.375Z,33.51
2019-06-26T19:18:37.887Z,34.75
2019-06-26T19:20:41.707Z,35.51
2019-06-26T19:22:47.521Z,36.30
2019-06-26T19:24:51.020Z,36.80
2019-06-26T19:26:54.879Z,37.50
2019-06-26T19:28:58.795Z,37.97
2019-06-26T19:31:02.580Z,38.43
2019-06-26T19:33:06.405Z,39.38
2019-06-26T19:35:18.883Z,40.22
2019-06-26T19:37:15.968Z,40.75
2019-06-26T19:39:20.953Z,40.97
2019-06-26T19:41:26.155Z,41.29
2019-06-26T19:43:29.866Z,41.50
2019-06-26T19:45:33.803Z,41.72
2019-06-26T19:47:37.522Z,42.12
2019-06-26T19:49:41.404Z,42.49
2019-06-26T19:51:45.600Z,42.84
2019-06-26T19:53:49.385Z,43.05
2019-06-26T19:55:53.304Z,43.07
2019-06-26T19:57:57.244Z,43.07
2019-06-26T20:00:01.008Z,43.12
2019-06-26T20:02:04.927Z,43.34
2019-06-26T20:04:08.720Z,43.68
2019-06-26T20:06:12.619Z,44.41
2019-06-26T20:08:16.366Z,45.20
2019-06-26T20:10:20.562Z,45.93
2019-06-26T20:12:24.400Z,46.25
2019-06-26T20:14:28.146Z,46.58
2019-06-26T20:16:32.094Z,46.95
2019-06-26T20:18:35.879Z,47.16
2019-06-26T20:20:39.628Z,47.19
2019-06-26T20:22:43.625Z,47.00
2019-06-26T20:24:48.123Z,47.09
2019-06-26T20:26:52.039Z,47.25
2019-06-26T20:28:55.830Z,47.52
2019-06-26T20:30:59.582Z,47.78
2019-06-26T20:33:03.377Z,48.31
2019-06-26T20:35:07.823Z,49.08
2019-06-26T20:37:11.551Z,49.61
2019-06-26T20:39:15.562Z,50.09
2019-06-26T20:41:19.280Z,50.19
2019-06-26T20:43:23.800Z,50.18
2019-06-26T20:45:27.684Z,50.03
2019-06-26T20:47:31.393Z,50.02
2019-06-26T20:49:35.271Z,50.10
2019-06-26T20:51:39.107Z,50.24
2019-06-26T20:53:42.842Z,50.36
2019-06-26T20:55:46.561Z,50.55
2019-06-26T20:57:50.423Z,50.83
2019-06-26T20:59:54.301Z,51.20
2019-06-26T21:01:58.055Z,51.40
2019-06-26T21:04:01.910Z,51.29
2019-06-26T21:06:05.645Z,51.23
2019-06-26T21:08:09.361Z,51.50
2019-06-26T21:10:13.368Z,51.87
2019-06-26T21:12:17.342Z,52.12
2019-06-26T21:14:21.047Z,52.43
2019-06-26T21:16:24.771Z,52.73
2019-06-26T21:18:28.549Z,52.83
2019-06-26T21:20:32.328Z,52.81
2019-06-26T21:22:36.251Z,52.81
2019-06-26T21:24:40.154Z,52.94
2019-06-26T21:26:44.047Z,53.19
2019-06-26T21:28:47.957Z,53.58
2019-06-26T21:30:52.919Z,53.60
2019-06-26T21:32:56.825Z,53.62
2019-06-26T21:35:00.704Z,53.93
2019-06-26T21:37:04.604Z,54.22
2019-06-26T21:39:08.653Z,54.54
2019-06-26T21:41:12.401Z,54.69
2019-06-26T21:43:16.885Z,54.87
2019-06-26T21:45:21.387Z,55.13
2019-06-26T21:47:25.190Z,55.27
2019-06-26T21:49:29.057Z,55.44
2019-06-26T21:51:32.942Z,55.53
2019-06-26T21:53:37.677Z,55.50
2019-06-26T21:55:41.772Z,55.66
2019-06-26T21:57:45.702Z,55.88
2019-06-26T21:59:49.647Z,56.16
2019-06-26T22:01:53.640Z,56.45
2019-06-26T22:03:57.467Z,56.65
2019-06-26T22:06:01.356Z,56.83
2019-06-26T22:08:05.423Z,56.90
2019-06-26T22:10:09.667Z,57.00
2019-06-26T22:12:13.796Z,57.00
2019-06-26T22:14:17.613Z,57.00
2019-06-26T22:16:21.630Z,57.04
2019-06-26T22:18:25.555Z,57.06
2019-06-26T22:20:29.520Z,57.22
2019-06-26T22:22:33.461Z,57.30
2019-06-26T22:24:37.250Z,57.39
2019-06-26T22:26:41.765Z,57.48
2019-06-26T22:28:45.831Z,57.52
2019-06-26T22:30:51.690Z,57.54
2019-06-26T22:32:55.548Z,57.58
2019-06-26T22:34:59.475Z,57.67
2019-06-26T22:37:03.482Z,57.76
2019-06-26T22:39:07.467Z,57.87
2019-06-26T22:41:11.325Z,58.07
2019-06-26T22:43:15.439Z,58.21
2019-06-26T22:45:19.396Z,58.13
2019-06-26T22:47:23.422Z,57.96
2019-06-26T22:49:27.287Z,57.78
2019-06-26T22:51:31.212Z,57.82
2019-06-26T22:53:35.099Z,57.93
2019-06-26T22:55:38.911Z,58.04
2019-06-26T22:57:42.932Z,58.35
2019-06-26T22:59:46.792Z,59.04
2019-06-26T23:01:50.830Z,59.39
2019-06-26T23:03:54.786Z,59.64
2019-06-26T23:05:58.768Z,59.77
2019-06-26T23:08:02.783Z,59.80
2019-06-26T23:10:07.261Z,59.84
2019-06-26T23:12:14.286Z,59.98
2019-06-26T23:14:18.044Z,60.05
2019-06-26T23:16:21.874Z,60.13
2019-06-26T23:18:25.890Z,60.25
2019-06-26T23:20:29.707Z,60.33
2019-06-26T23:22:33.590Z,60.35
2019-06-26T23:24:37.573Z,60.42
2019-06-26T23:26:41.639Z,60.48
2019-06-26T23:28:45.700Z,60.59
2019-06-26T23:30:49.589Z,61.00
2019-06-26T23:32:53.571Z,61.51
2019-06-26T23:34:58.290Z,61.92
2019-06-26T23:37:02.134Z,62.15
2019-06-26T23:39:07.484Z,62.36
2019-06-26T23:41:11.221Z,62.55
2019-06-26T23:43:15.326Z,62.74
2019-06-26T23:45:19.572Z,62.90
2019-06-26T23:47:23.499Z,63.09
2019-06-26T23:49:27.435Z,63.26
2019-06-26T23:51:31.388Z,63.40
2019-06-26T23:53:35.290Z,63.51
2019-06-26T23:55:39.118Z,63.63
2019-06-26T23:57:57.892Z,63.78
2019-06-26T23:59:48.580Z,63.96
